메인 페이지
METAR-TAF:

METAR-TAF

공항 :

Cedar City, 유타, 미국

위도: 37-42-24N, 경도: 113-05-48W, 고도: 1715m

현재 날씨관측

예보는 18 시간 8분 전, 15:16시(UTC)에 발표되었습니다.
남동4kt
온도 -11°C
습도 78%
기압 1014 hPa
시정: 14.5km
고도 600ft 상공 구름 많음
고도 5500ft 상공 구름 많음

METAR: KCDC 201516Z AUTO 13004KT 9SM BKN006 BKN055 M11/M14 A2995 RMK AO2 T11111139 $

시각: 02:24 (09:24 UTC)

예보

예보는 21 시간 54분 전, 11:30시(UTC)에 발표되었습니다.
예보 대상 시간: 20일 12시부터 21일 12시까지 (UTC)
여러 방향의 바람 4kt
시정: 10km
고도 3000ft 상공 구름 보통
고도 6000ft 상공 구름 많음
20일 1800시부터 (UTC)
북서6kt
시정: 10km
고도 6000ft 상공 구름 보통
21일 0200시부터 (UTC)
여러 방향의 바람 3kt
시정: 10km
고도 12000ft 상공 구름 보통

TAF: KCDC 201130Z 2012/2112 VRB04KT P6SM SCT030 BKN060 FM201800 32006KT P6SM SCT060 FM210200 VRB03KT P6SM SCT120 AMD NOT SKED

4,000개 이상의 공항 관측 자료 및 예보 (METAR 및 TAF 보고).

지도상에서 검색 가능한 기상관측소가 노란 점과 빨간 점으로 표시되어 있습니다.

기상관측소 명을 보려면 표시 위로 마우스를 이동하세요.

날씨 관측과 예보를 보려면 클릭하세요.

지도 변경 : 확대하려면 엑스 표시가 있는 녹색 버튼, 축소하려면 빼기 표시가 있는 녹색 버튼, 다음 페이지의 지도를 보려면 녹색 화살표를 클릭하세요.


METAR-TAF: